Date,TemperatureHighF,TemperatureAvgF,TemperatureLowF,DewpointHighF,DewpointAvgF,DewpointLowF,HumidityHigh,HumidityAvg,HumidityLow,PressureMaxIn,PressureMinIn,WindSpeedMaxMPH,WindSpeedAvgMPH,GustSpeedMaxMPH,PrecipitationSumIn
2013-1-1,46.7,41.8,36.4,46.0,36.4,18.0,99,84,43,30.33,30.13,3,0,5,0.56
2013-1-2,42.8,39.1,36.1,43.0,38.5,35.0,99,97,94,30.28,30.09,3,1,4,0.02
2013-1-3,39.9,34.0,27.6,37.0,31.4,18.0,99,90,63,30.51,30.25,3,1,4,0.00
2013-1-4,38.0,28.2,22.1,29.0,20.3,13.0,94,74,38,30.60,30.49,4,1,9,0.00
2013-1-5,45.4,34.1,22.7,31.0,23.0,17.0,84,66,36,30.64,30.46,3,1,3,0.01
2013-1-6,45.0,36.8,33.5,38.0,31.8,27.0,98,83,57,30.45,30.25,4,1,11,0.02
2013-1-7,47.2,35.0,25.6,30.0,25.5,23.0,91,71,39,30.60,30.40,6,2,7,0.00
2013-1-8,50.3,39.2,29.0,44.0,34.2,25.0,91,82,68,30.65,30.53,5,1,5,0.00
2013-1-9,53.6,50.3,46.6,51.0,48.6,45.0,97,94,89,30.62,30.55,1,0,3,0.00
2013-1-10,60.5,53.4,48.9,53.0,50.0,48.0,98,88,69,30.61,30.42,9,1,14,0.02
2013-1-11,59.3,55.2,51.2,58.0,54.4,50.0,99,97,93,30.42,30.24,6,1,12,0.33
2013-1-12,66.3,59.7,54.6,61.0,56.2,52.0,98,88,67,30.30,30.18,5,1,7,0.10
2013-1-13,61.7,59.1,56.7,56.0,54.0,51.0,96,83,77,30.22,30.14,8,2,15,0.30
2013-1-14,59.8,57.3,50.9,59.0,56.3,50.0,99,96,94,30.24,30.11,8,1,15,1.91
2013-1-15,57.8,55.0,50.9,57.0,54.5,51.0,99,98,96,30.21,30.06,6,1,10,2.98
2013-1-16,58.0,54.2,48.9,57.0,52.9,48.0,98,95,80,30.11,30.00,4,1,7,0.95
2013-1-17,49.5,43.8,30.0,49.0,42.9,28.0,99,96,84,30.35,29.82,13,1,15,1.58
2013-1-18,42.2,33.6,26.1,29.0,23.5,16.0,90,68,38,30.69,30.36,4,2,4,0.00
2013-1-19,46.6,36.1,27.9,29.0,25.2,19.0,85,67,33,30.67,30.41,5,1,6,0.00
2013-1-20,50.3,39.2,32.9,35.0,26.1,20.0,80,61,37,30.41,30.27,4,1,14,0.00
2013-1-21,44.7,34.7,26.6,28.0,22.0,14.0,84,61,37,30.31,30.20,7,2,18,0.00
2013-1-22,31.7,24.9,18.3,12.0,7.6,1.0,61,49,29,30.48,30.26,9,2,10,0.00
2013-1-23,40.3,31.0,21.9,28.0,19.5,6.0,74,63,51,30.56,30.34,8,2,11,0.00
2013-1-24,39.3,34.7,25.8,32.0,15.4,0.0,77,49,21,30.55,30.30,9,2,14,0.00
2013-1-25,39.2,27.5,21.0,38.0,22.6,7.0,98,83,53,30.57,30.35,5,1,9,0.01
2013-1-26,44.2,34.8,29.7,39.0,31.6,28.0,98,89,72,30.53,30.37,3,1,4,0.00
2013-1-27,49.4,38.7,30.2,35.0,29.9,25.0,85,71,53,30.67,30.53,3,1,4,0.00
2013-1-28,57.8,47.1,38.7,48.0,40.8,32.0,91,79,68,30.59,30.42,3,1,8,0.00
2013-1-29,62.2,52.8,43.6,57.0,49.4,42.0,96,88,73,30.43,30.13,4,1,13,0.04
2013-1-30,60.8,53.9,38.2,58.0,51.6,36.0,97,92,85,30.12,29.59,9,3,24,1.10
2013-1-31,36.7,29.8,24.8,35.0,22.8,18.0,95,76,57,30.28,29.71,9,3,20,0.00
2013-2-1,34.9,25.0,17.2,29.0,12.0,1.0,90,59,32,30.58,30.20,8,2,14,0.00
2013-2-2,30.9,24.0,16.9,30.0,17.2,4.0,98,76,54,30.59,30.32,4,0,7,0.00
2013-2-3,34.5,30.7,27.1,30.0,25.5,21.0,96,81,70,30.32,30.19,7,2,13,0.00
2013-2-4,44.7,32.6,21.9,29.0,22.5,15.0,86,68,48,30.37,30.22,3,1,6,0.00
2013-2-5,47.0,39.6,34.5,38.0,31.2,23.0,89,72,59,30.22,30.14,5,1,8,0.00
2013-2-6,53.0,43.5,34.5,37.0,28.5,20.0,83,58,29,30.38,30.22,4,2,11,0.00
2013-2-7,45.6,41.9,39.4,41.0,34.3,24.0,96,76,48,30.38,30.13,4,1,6,0.00
2013-2-8,45.0,39.5,31.2,43.0,35.7,25.0,98,87,57,30.33,30.09,7,2,11,0.00
2013-2-9,53.5,39.3,27.3,28.0,21.8,17.0,82,53,24,30.51,30.30,4,1,6,0.00
2013-2-10,48.6,41.4,36.6,47.0,29.3,17.0,98,65,30,30.52,30.31,9,1,17,0.00
2013-2-11,52.6,48.0,40.1,52.0,42.9,23.0,98,84,46,30.31,30.18,3,1,9,0.00
2013-2-12,49.2,40.6,34.1,37.0,31.7,25.0,95,72,48,30.28,30.06,4,1,7,0.00
2013-2-13,45.5,38.2,31.1,44.0,36.0,28.0,99,91,78,30.08,29.84,7,1,10,0.00
2013-2-14,45.6,34.8,26.0,34.0,27.9,25.0,96,78,48,30.27,30.09,4,1,8,0.00
2013-2-15,50.0,38.3,30.7,35.0,30.8,28.0,90,76,47,30.32,30.15,7,1,8,0.01
2013-2-16,32.5,26.3,18.2,28.0,18.7,7.0,88,73,51,30.25,30.05,8,2,14,0.00
2013-2-17,30.3,22.5,15.1,14.0,7.9,3.0,68,55,32,30.53,30.25,21,2,21,0.00
2013-2-18,50.6,34.7,22.1,27.0,19.7,12.0,71,56,36,30.61,30.37,6,1,14,0.00
2013-2-19,45.4,37.1,30.1,38.0,27.1,14.0,97,69,45,30.36,30.10,10,2,21,0.38
2013-2-20,45.1,33.2,24.3,14.0,7.0,-3.0,60,36,17,30.35,30.27,5,1,20,0.00
2013-2-21,58.5,40.5,26.1,35.0,18.9,10.0,95,47,20,30.41,30.23,6,1,10,0.46
2013-2-22,43.4,38.5,33.3,43.0,37.5,32.0,99,96,93,30.38,30.24,8,1,11,0.61
2013-2-23,52.8,46.9,41.7,51.0,45.9,37.0,99,96,80,30.25,29.98,3,0,4,0.31
2013-2-24,55.1,42.4,33.0,38.0,29.7,20.0,94,65,26,30.20,30.02,6,2,6,0.00
2013-2-25,48.2,40.0,33.9,36.0,28.9,24.0,96,66,49,30.25,30.09,9,1,10,0.02
2013-2-26,49.1,40.4,35.6,47.0,38.3,32.0,98,92,82,30.08,29.70,9,2,15,1.53
2013-2-27,49.5,38.6,31.7,36.0,30.6,27.0,90,75,46,29.99,29.84,10,2,14,0.01
2013-2-28,35.4,30.1,27.3,29.0,24.2,22.0,83,78,73,30.14,29.91,6,2,15,0.00
2013-3-1,34.2,29.9,26.5,28.0,25.3,23.0,88,82,75,30.16,30.11,4,1,6,0.00
2013-3-2,32.1,27.8,22.1,27.0,24.2,18.0,95,86,75,30.19,30.08,6,1,10,0.00
2013-3-3,32.3,23.2,17.7,18.0,15.1,13.0,86,72,50,30.29,30.16,5,2,9,0.00
2013-3-4,49.6,34.1,18.8,29.0,18.6,10.0,80,56,24,30.41,30.28,4,2,7,0.01
2013-3-5,49.7,40.4,29.3,48.0,36.3,24.0,99,86,61,30.30,29.84,8,1,17,0.79
2013-3-6,29.2,25.9,21.6,25.0,21.9,18.0,91,85,74,30.40,29.90,12,3,19,0.00
2013-3-7,49.4,32.9,22.6,32.0,25.7,21.0,94,77,43,30.52,30.39,4,1,5,0.01
2013-3-8,54.3,38.2,23.8,31.0,20.2,13.0,95,57,20,30.53,30.42,4,1,7,0.00
2013-3-9,64.1,46.3,33.6,31.0,24.2,16.0,60,44,23,30.50,30.34,4,1,7,0.00
2013-3-10,62.3,49.7,40.8,34.0,30.1,27.0,63,49,31,30.41,30.26,7,2,14,0.00
2013-3-11,52.7,49.1,46.7,49.0,45.7,35.0,97,88,63,30.29,29.95,8,2,19,1.00
2013-3-12,53.4,44.3,36.1,49.0,36.8,25.0,98,78,35,30.20,29.91,7,1,9,0.19
2013-3-13,38.2,33.1,25.0,28.0,22.1,16.0,74,64,46,30.39,30.20,11,2,16,0.00
2013-3-14,46.1,31.1,19.3,17.0,13.1,8.0,78,52,22,30.53,30.39,9,2,13,0.00
2013-3-15,62.8,47.3,31.0,41.0,32.1,17.0,81,58,35,30.45,30.12,5,2,12,0.00
2013-3-16,70.1,59.5,52.8,45.0,42.2,39.0,64,54,38,30.11,29.90,8,2,14,0.00
2013-3-17,68.4,58.3,52.1,47.0,43.8,40.0,77,60,37,30.06,29.95,6,2,11,0.00
2013-3-18,53.0,48.2,43.4,48.0,45.3,42.0,97,90,78,30.07,29.94,10,2,12,0.62
2013-3-19,53.4,43.8,34.3,43.0,27.7,11.0,98,59,28,30.25,29.99,6,1,16,0.00
2013-3-20,49.5,37.6,29.3,28.0,12.7,6.0,89,39,19,30.28,30.03,6,1,14,0.00
2013-3-21,34.9,26.8,18.2,23.0,10.7,3.0,79,52,36,30.18,30.00,8,2,13,0.00
2013-3-22,42.4,32.2,21.1,29.0,19.2,11.0,73,59,39,30.29,30.19,3,1,8,0.00
2013-3-23,52.9,42.6,34.1,46.0,38.3,28.0,97,85,67,30.26,29.99,6,1,11,0.07
2013-3-24,50.2,43.8,38.4,47.0,42.0,36.0,98,93,80,30.05,29.61,5,1,11,1.01
2013-3-25,37.8,27.4,23.5,34.0,22.8,19.0,90,83,75,30.17,29.69,16,3,21,0.00
2013-3-26,31.7,26.9,23.1,25.0,22.0,20.0,88,82,72,30.47,30.17,6,3,13,0.00
2013-3-27,43.7,31.8,23.3,24.0,20.6,17.0,83,65,42,30.53,30.43,6,2,9,0.01
2013-3-28,49.9,36.9,26.9,22.0,17.7,8.0,77,50,19,30.53,30.42,9,2,14,0.00
2013-3-29,48.9,36.3,29.4,36.0,26.7,18.0,97,71,36,30.56,30.46,4,1,7,0.15
2013-3-30,59.0,46.1,35.8,44.0,38.7,35.0,98,79,45,30.45,30.22,5,1,8,0.17
2013-3-31,56.8,50.7,45.0,50.0,48.0,44.0,97,90,75,30.22,29.99,6,1,14,0.59
2013-4-1,51.8,46.1,41.8,49.0,44.6,41.0,97,94,88,30.10,29.99,4,1,4,0.08
2013-4-8,70.4,64.6,57.1,50.0,47.5,46.0,76,55,43,30.24,30.17,8,3,11,0.00
2013-4-9,77.7,64.7,53.8,54.0,51.3,49.0,86,64,39,30.31,30.19,8,2,10,0.00
2013-4-10,82.1,66.9,56.0,55.0,51.5,43.0,85,61,25,30.23,30.02,8,2,10,0.00
2013-4-11,71.9,63.8,57.4,60.0,54.0,50.0,97,72,46,30.04,29.76,6,1,15,2.00
2013-4-12,66.1,58.1,47.6,57.0,46.5,33.0,98,69,38,30.01,29.70,8,2,11,0.85
2013-4-13,68.3,55.0,41.8,38.0,32.6,25.0,78,47,20,30.18,30.01,8,2,13,0.00
2013-4-14,65.4,53.1,45.5,47.0,37.6,31.0,95,58,32,30.22,30.09,9,2,15,0.03
2013-4-15,74.5,57.5,48.2,56.0,51.6,47.0,98,83,43,30.30,30.08,7,1,15,0.04
2013-4-16,77.1,63.0,53.8,59.0,54.3,49.0,91,75,38,30.38,30.25,6,2,15,0.00
2013-4-17,78.2,63.7,58.7,60.0,56.7,54.0,88,79,51,30.33,30.21,6,1,11,0.67
2013-4-18,68.8,63.1,58.4,58.0,55.7,52.0,92,77,58,30.20,30.01,6,0,17,0.00
2013-4-19,63.4,56.2,38.5,59.0,51.9,33.0,96,86,71,30.06,29.81,8,1,20,0.93
2013-4-20,56.6,43.6,33.1,33.0,26.5,20.0,82,55,26,30.45,30.07,7,2,11,0.00
2013-4-21,60.6,47.4,37.0,35.0,30.1,27.0,72,53,31,30.57,30.43,7,2,13,0.00
2013-4-22,62.9,49.8,38.2,40.0,36.4,34.0,85,63,37,30.52,30.30,4,2,9,0.00
2013-4-23,71.6,53.8,39.6,44.0,36.1,27.0,74,53,32,30.40,30.20,6,2,11,0.00
2013-4-24,67.3,57.1,50.4,56.0,49.7,43.0,92,77,56,30.27,30.13,6,2,18,0.07
2013-4-25,65.4,52.0,39.9,51.0,32.5,6.0,96,58,11,30.46,30.20,6,2,13,0.00
2013-4-26,68.3,53.7,39.1,38.0,31.8,27.0,67,46,23,30.55,30.41,7,1,10,0.00
2013-4-27,55.4,48.1,44.7,49.0,45.4,38.0,98,91,53,30.49,30.36,2,0,6,1.24
2013-4-28,51.0,48.9,47.1,51.0,48.2,46.0,99,97,94,30.38,30.14,6,1,8,2.27
2013-4-29,70.5,57.6,48.4,55.0,50.2,44.0,99,79,41,30.20,30.04,5,1,6,0.03
2013-4-30,70.7,59.9,50.2,55.0,51.6,49.0,96,76,48,30.24,30.08,13,1,13,0.00
2013-5-1,68.4,59.3,51.8,53.0,50.0,47.0,89,73,50,30.33,30.24,4,1,13,0.00
2013-5-2,61.7,55.3,51.6,54.0,50.9,48.0,95,85,72,30.36,30.30,7,1,10,0.01
2013-5-3,59.5,53.1,48.7,51.0,48.9,46.0,96,86,62,30.31,30.17,10,2,20,0.11
2013-5-4,49.0,46.8,43.2,48.0,45.1,39.0,97,93,82,30.17,30.05,9,2,14,0.55
2013-5-5,49.6,47.5,46.0,49.0,46.7,45.0,98,97,94,30.09,29.96,8,2,17,1.45
2013-5-6,56.8,49.1,42.7,48.0,43.9,41.0,98,84,57,30.06,29.91,6,1,14,0.20
2013-5-7,64.6,50.2,39.2,48.0,42.8,39.0,98,78,47,30.11,30.03,6,1,8,0.00
2013-5-8,64.7,54.9,47.5,53.0,50.0,44.0,96,84,63,30.21,30.08,4,1,7,0.00
2013-5-9,74.0,60.5,49.1,56.0,50.1,43.0,98,73,35,30.27,30.17,5,1,7,0.00
2013-5-10,72.4,62.0,54.6,59.0,54.4,51.0,94,77,55,30.23,30.05,5,1,8,0.05
2013-5-11,68.6,58.7,54.1,59.0,55.4,52.0,97,89,67,30.09,29.96,3,0,6,0.33
2013-5-12,60.7,51.9,43.9,51.0,39.1,29.0,93,65,35,30.23,30.04,5,1,9,0.00
2013-5-13,60.7,48.5,39.1,32.0,29.5,22.0,72,50,28,30.36,30.23,5,1,10,0.00
2013-5-14,71.5,56.1,39.6,50.0,40.6,29.0,76,57,39,30.42,30.25,7,1,7,0.00
2013-5-15,82.0,66.7,55.4,56.0,51.3,47.0,85,61,30,30.29,30.08,3,1,8,0.00
2013-5-16,75.0,65.5,58.3,57.0,53.1,50.0,80,65,41,30.15,30.06,2,1,5,0.00
2013-5-17,75.5,64.9,56.7,60.0,54.8,47.0,90,71,47,30.20,30.11,3,0,7,0.00
2013-5-18,66.0,61.4,58.7,62.0,59.0,54.0,97,92,79,30.18,30.13,6,0,6,0.35
2013-5-19,70.3,63.5,59.2,66.0,61.1,58.0,98,92,82,30.21,30.10,1,0,4,0.00
2013-5-20,78.9,64.5,56.2,65.0,60.1,56.0,98,87,57,30.23,30.12,3,0,9,0.27
2013-5-21,80.2,66.8,61.0,67.0,61.8,57.0,98,85,52,30.16,30.02,2,0,9,0.00
2013-5-22,79.8,65.3,57.7,67.0,60.6,56.0,96,86,54,30.11,29.95,3,0,6,0.11
2013-5-23,74.1,63.7,58.3,62.0,57.4,51.0,98,81,51,30.05,29.97,7,1,12,0.43
2013-5-24,64.5,57.4,49.4,52.0,41.6,28.0,86,59,30,30.35,30.05,5,1,9,0.00
2013-5-25,73.7,56.8,40.9,46.0,37.9,30.0,87,54,25,30.48,30.34,3,1,6,0.00
2013-5-26,70.3,57.8,49.1,52.0,42.6,31.0,87,58,37,30.42,30.30,3,0,4,0.01
2013-5-27,77.3,63.8,51.9,58.0,51.5,44.0,79,65,45,30.38,30.24,4,0,8,0.00
2013-5-28,79.0,67.1,60.2,61.0,57.0,54.0,86,72,44,30.31,30.21,4,1,8,0.00
2013-5-29,78.5,66.9,59.5,64.0,58.2,53.0,90,75,51,30.32,30.22,3,0,8,0.00
2013-5-30,79.5,66.5,59.7,63.0,57.9,54.0,91,76,45,30.36,30.23,5,0,8,0.00
2013-5-31,77.1,67.7,60.5,61.0,59.0,56.0,90,75,49,30.31,30.18,4,0,9,0.00
2013-6-1,78.1,68.7,63.0,63.0,60.8,57.0,93,77,50,30.20,30.08,6,1,8,0.01
2013-6-2,70.4,64.4,62.0,67.0,63.3,61.0,98,96,90,30.12,30.00,3,0,6,0.00
2013-6-3,74.7,65.6,60.1,65.0,60.2,56.0,98,84,59,30.07,29.97,3,0,8,0.00
2013-6-4,77.3,66.0,55.2,63.0,59.2,54.0,98,80,49,30.15,30.06,4,0,6,0.00
2013-6-5,74.6,66.5,60.0,67.0,62.4,59.0,97,87,68,30.16,30.01,4,0,10,0.00
2013-6-6,73.4,64.7,57.9,67.0,62.2,57.0,98,92,74,30.04,29.86,2,0,6,0.00
2013-6-7,77.8,65.8,59.5,67.0,62.7,58.0,97,90,63,29.93,29.78,3,0,5,0.00
2013-6-8,76.1,65.2,57.4,66.0,60.0,57.0,97,84,56,30.20,29.93,2,0,5,0.00
2013-6-9,77.6,66.1,61.4,68.0,62.9,60.0,98,89,66,30.23,30.11,4,0,7,0.00
2013-6-10,71.4,64.9,60.6,64.0,61.6,59.0,98,89,65,30.11,30.02,10,1,10,0.00
2013-6-11,79.5,69.2,62.0,65.0,62.1,59.0,97,80,50,30.14,30.05,4,1,7,0.00
2013-6-12,85.0,72.0,61.4,73.0,66.0,60.0,96,82,60,30.15,30.04,2,0,6,0.00
2013-6-13,82.1,69.7,63.3,69.0,64.9,61.0,97,85,59,30.04,29.80,5,1,9,0.00
2013-6-14,76.2,64.8,54.8,61.0,55.0,52.0,92,72,45,30.16,29.90,3,1,5,0.00
2013-6-15,76.3,64.6,53.2,62.0,56.3,49.0,92,75,53,30.27,30.15,2,0,5,0.00
2013-6-16,79.6,68.3,58.8,64.0,60.3,56.0,91,77,47,30.26,30.11,2,0,5,0.00
2013-6-17,72.0,67.4,63.7,69.0,64.4,60.0,97,90,79,30.14,30.03,2,0,4,0.00
2013-6-18,70.6,65.1,61.6,68.0,63.9,60.0,98,96,85,30.05,29.93,6,0,8,0.00
2013-6-19,77.9,65.7,57.9,67.0,60.8,56.0,97,85,59,30.21,30.03,2,0,8,0.00
2013-6-20,77.8,65.7,58.1,66.0,61.6,57.0,97,87,63,30.32,30.20,6,0,10,0.00
2013-6-21,76.6,65.2,58.5,66.0,61.6,58.0,98,88,68,30.36,30.27,2,0,3,0.00
2013-6-22,80.4,66.6,57.3,64.0,59.8,57.0,98,81,47,30.36,30.21,2,0,4,0.03
2013-6-23,76.4,66.0,58.2,70.0,62.4,57.0,96,88,66,30.32,30.21,2,0,7,0.25
2013-6-24,80.7,69.3,62.2,70.0,65.2,62.0,98,87,68,30.33,30.18,3,0,5,0.00
2013-6-25,81.1,69.1,61.9,69.0,64.7,61.0,97,86,66,30.25,30.11,2,0,3,0.00
2013-6-26,80.1,70.2,63.4,71.0,66.2,63.0,98,87,66,30.15,30.00,3,0,8,0.00
2013-6-27,78.2,69.9,62.7,72.0,66.6,62.0,98,89,77,30.05,29.86,3,0,9,0.44
2013-6-28,81.6,69.4,62.6,70.0,65.5,62.0,98,88,61,29.93,29.74,3,0,7,0.09
2013-6-29,78.5,67.5,59.9,65.0,60.7,57.0,98,80,53,29.82,29.75,3,0,5,0.00
2013-6-30,79.4,67.0,58.1,66.0,60.5,56.0,93,81,51,29.90,29.81,4,0,4,0.00
2013-7-1,81.4,66.3,60.6,67.0,62.1,60.0,97,88,53,30.04,29.88,3,0,7,0.49
2013-7-2,78.0,67.6,60.5,68.0,63.1,60.0,98,87,61,30.21,30.04,5,0,7,0.55
2013-7-3,67.5,63.2,59.6,67.0,62.3,59.0,98,97,94,30.32,30.19,1,0,3,2.51
2013-7-4,70.1,63.7,59.9,69.0,63.2,59.0,99,98,95,30.32,30.25,1,0,3,1.94
2013-7-5,74.4,66.6,62.5,69.0,64.5,62.0,99,93,78,30.34,30.26,2,0,8,0.69
2013-7-6,75.3,66.7,63.0,70.0,65.2,63.0,99,95,78,30.29,30.20,3,0,6,0.98
2013-7-7,74.0,68.0,63.9,69.0,66.1,63.0,98,93,80,30.26,30.18,3,0,6,0.75
2013-7-8,79.8,69.2,63.8,71.0,66.0,63.0,98,90,63,30.30,30.18,2,0,5,0.00
2013-7-9,81.0,70.1,64.5,74.0,67.9,64.0,98,93,74,30.27,30.16,2,0,6,0.01
2013-7-10,84.7,71.6,65.7,73.0,68.0,65.0,98,89,59,30.22,30.02,2,0,7,0.26
2013-7-11,75.3,68.8,64.8,71.0,67.2,64.0,98,94,82,30.05,29.97,2,0,4,0.00
2013-7-12,81.9,68.4,59.4,69.0,64.5,59.0,98,88,58,30.07,29.97,3,0,6,0.40
2013-7-13,73.9,65.7,59.3,67.0,62.6,59.0,98,90,77,30.21,30.06,2,1,9,0.01
2013-7-14,69.9,66.6,65.0,68.0,65.3,64.0,98,95,90,30.36,30.19,4,0,9,0.46
2013-7-15,76.6,68.7,63.2,69.0,65.1,62.0,97,89,73,30.43,30.36,2,0,6,0.02
2013-7-16,84.3,71.4,64.0,73.0,67.0,63.0,98,87,62,30.43,30.32,3,0,7,0.11
2013-7-17,85.7,70.4,63.6,74.0,67.0,63.0,98,89,60,30.40,30.25,3,0,3,0.14
2013-7-18,82.0,69.7,61.8,75.0,66.9,61.0,98,91,72,30.33,30.18,1,0,4,0.01
2013-7-19,83.6,71.9,64.7,73.0,67.4,64.0,98,87,61,30.25,30.07,4,0,5,0.00
2013-7-20,81.0,71.1,65.6,73.0,67.9,65.0,97,90,72,30.14,30.02,2,0,4,0.00
2013-7-21,83.8,70.7,65.3,72.0,67.2,65.0,98,89,63,30.11,30.01,2,0,4,0.01
2013-7-22,78.9,69.1,63.7,70.0,66.0,63.0,98,90,70,30.09,29.93,4,0,5,0.16
2013-7-23,79.9,69.1,62.5,70.0,65.2,61.0,97,88,66,30.02,29.90,3,0,6,0.01
2013-7-24,80.9,69.5,63.2,71.0,65.4,61.0,98,87,62,29.96,29.89,2,0,7,0.02
2013-7-25,82.2,68.0,60.2,71.0,63.0,59.0,98,85,51,30.12,29.96,2,0,4,0.01
2013-7-26,81.0,66.7,59.7,68.0,62.8,59.0,97,88,60,30.19,30.11,2,0,8,0.03
2013-7-27,73.5,67.5,63.6,68.0,64.9,63.0,98,91,72,30.12,30.00,2,0,5,0.50
2013-7-28,78.6,67.5,61.9,66.0,62.7,59.0,97,85,61,30.14,30.02,3,0,5,0.00
2013-7-29,81.0,65.5,57.6,66.0,56.6,45.0,98,77,28,30.30,30.14,3,0,4,0.00
2013-7-30,80.9,66.8,56.7,67.0,59.6,54.0,94,79,50,30.35,30.24,2,0,3,0.00
2013-7-31,70.8,67.2,64.8,68.0,65.2,63.0,97,93,86,30.27,30.06,4,0,5,0.08
2013-8-1,79.0,68.5,63.9,70.0,65.1,61.0,98,89,70,30.09,30.01,2,0,3,0.00
2013-8-2,82.2,68.5,58.9,70.0,64.1,58.0,98,86,58,30.14,30.05,4,0,4,0.00
2013-8-3,79.7,69.0,63.2,67.0,64.4,62.0,98,86,62,30.14,30.07,3,0,4,0.00
2013-8-4,79.4,68.6,62.9,70.0,63.3,56.0,98,84,63,30.15,30.08,2,0,3,0.00
2013-8-5,81.7,68.7,59.3,67.0,62.1,57.0,94,80,57,30.18,30.07,2,0,4,0.00
2013-8-6,82.3,69.7,63.1,70.0,65.6,62.0,97,87,64,30.12,30.05,2,0,7,0.07
2013-8-7,75.0,68.3,65.5,71.0,66.7,65.0,98,95,82,30.15,30.09,1,0,5,0.39
2013-8-8,79.3,70.2,65.9,73.0,68.1,65.0,98,93,78,30.16,30.11,2,0,4,0.00
2013-8-9,80.7,71.2,65.5,74.0,68.6,65.0,98,91,78,30.20,30.12,3,0,4,0.01
2013-8-10,75.1,70.2,67.1,72.0,68.6,65.0,98,94,88,30.23,30.17,1,0,4,0.29
2013-8-11,77.5,70.2,65.5,72.0,68.1,65.0,98,93,79,30.27,30.17,2,0,3,0.02
2013-8-12,81.6,70.3,64.9,73.0,67.8,64.0,98,92,68,30.22,30.08,2,0,5,0.01
2013-8-13,75.9,68.5,64.7,71.0,66.2,63.0,98,92,79,30.10,29.95,3,0,6,0.57
2013-8-14,76.4,65.8,61.0,65.0,62.5,59.0,98,89,58,30.15,30.01,2,0,4,0.00
2013-8-15,71.9,62.0,56.2,63.0,57.3,52.0,92,85,67,30.23,30.13,5,1,7,0.00
2013-8-16,66.9,60.2,55.0,59.0,55.8,53.0,94,85,72,30.27,30.18,4,0,6,0.00
2013-8-17,67.0,61.4,55.6,63.0,58.1,53.0,98,89,81,30.28,30.21,4,0,6,0.07
2013-8-18,75.0,64.0,59.9,68.0,62.4,59.0,99,94,75,30.33,30.23,2,0,6,0.20
2013-8-19,68.5,64.4,61.2,67.0,63.7,61.0,99,97,95,30.30,30.20,0,0,2,1.17
2013-8-20,76.2,66.9,62.6,70.0,65.1,62.0,98,94,77,30.30,30.22,2,0,6,0.00
2013-8-21,70.1,65.8,63.4,67.0,64.7,63.0,98,96,89,30.35,30.26,1,0,2,0.08
2013-8-22,79.4,67.8,62.2,71.0,65.7,62.0,99,93,74,30.31,30.15,3,0,4,0.38
2013-8-23,81.7,67.7,62.1,72.0,64.8,62.0,99,91,62,30.20,30.09,2,0,4,0.04
2013-8-24,76.0,65.3,60.1,69.0,62.3,57.0,99,90,72,30.40,30.19,3,0,5,0.00
2013-8-25,77.0,63.6,54.4,64.0,57.5,52.0,93,81,55,30.51,30.38,2,0,5,0.00
2013-8-26,77.9,64.2,54.5,64.0,58.9,53.0,97,84,58,30.45,30.27,2,0,4,0.00
2013-8-27,81.5,65.7,55.3,68.0,61.8,55.0,98,88,60,30.30,30.16,1,0,2,0.00
2013-8-28,83.1,69.1,61.4,71.0,65.3,61.0,98,88,64,30.19,30.07,2,0,3,0.00
2013-8-29,82.9,72.5,65.7,73.0,67.9,64.0,94,85,68,30.10,30.02,2,0,5,0.00
2013-8-30,84.4,71.4,65.7,73.0,67.8,65.0,97,88,62,30.12,30.01,2,0,3,0.00
2013-8-31,77.4,68.6,65.4,74.0,67.1,64.0,98,95,80,30.07,29.98,2,0,4,0.95
2013-9-1,80.3,68.9,64.4,73.0,67.1,64.0,99,94,75,30.03,29.93,2,0,5,0.30
2013-9-2,79.6,69.1,63.5,72.0,66.5,63.0,99,91,66,30.05,29.94,2,0,3,0.00
2013-9-3,77.9,67.1,59.0,70.0,64.1,59.0,99,90,69,30.12,29.96,4,0,9,0.70
2013-9-4,79.6,65.9,57.4,69.0,62.6,57.0,99,90,59,30.24,30.11,2,0,3,0.00
2013-9-5,82.1,67.5,61.6,71.0,63.4,61.0,98,88,53,30.26,30.18,2,0,3,0.00
2013-9-6,80.3,65.6,55.9,68.0,60.9,54.0,96,85,60,30.29,30.18,2,0,3,0.00
2013-9-7,79.3,66.3,58.3,67.0,62.2,58.0,99,87,60,30.24,30.11,2,0,5,0.00
2013-9-8,79.0,66.1,58.4,68.0,62.9,58.0,99,90,66,30.14,30.07,2,0,2,0.00
2013-9-9,80.8,67.7,60.3,72.0,64.4,60.0,99,89,68,30.25,30.14,2,0,3,0.00
2013-9-10,80.6,67.6,60.5,70.0,64.5,60.0,99,90,66,30.36,30.26,2,0,3,0.00
2013-9-11,80.1,67.4,60.0,71.0,64.6,60.0,98,91,72,30.37,30.22,2,0,2,0.00
2013-9-12,75.3,66.0,61.5,70.0,64.5,60.0,99,95,83,30.24,30.02,2,0,3,0.06
2013-9-13,72.4,62.2,54.0,63.0,57.6,50.0,99,86,61,30.04,29.95,3,0,4,0.01
2013-9-14,70.4,57.3,48.1,60.0,52.9,47.0,97,85,65,30.25,30.04,2,0,5,0.00
2013-9-15,74.7,60.9,54.0,63.0,56.8,52.0,97,87,56,30.34,30.24,2,0,3,0.00
2013-9-16,78.1,64.3,57.1,65.0,59.8,57.0,98,86,63,30.29,30.20,2,0,3,0.00
2013-9-17,65.6,61.9,57.5,60.0,57.7,54.0,92,86,76,30.36,30.27,4,0,7,0.00
2013-9-18,66.3,59.6,55.5,60.0,56.3,52.0,97,89,77,30.39,30.28,1,0,3,0.00
2013-9-19,76.9,62.8,55.5,68.0,60.3,55.0,98,92,68,30.33,30.20,2,0,3,0.00
2013-9-20,77.7,65.9,59.6,68.0,62.1,59.0,98,88,60,30.23,30.03,2,0,4,0.00
2013-9-21,64.5,62.0,56.8,63.0,60.5,56.0,98,95,90,30.05,29.80,2,0,14,1.54
2013-9-22,72.3,58.3,50.4,62.0,55.1,50.0,99,90,63,30.05,29.88,2,0,3,0.01
2013-9-23,72.6,59.0,52.8,63.0,56.2,52.0,97,91,69,30.17,30.05,2,0,4,0.00
2013-9-24,69.7,60.0,52.4,65.0,57.3,52.0,98,91,79,30.19,30.04,2,0,6,0.00
2013-9-25,60.4,58.8,57.1,60.0,58.1,56.0,99,98,95,30.04,29.95,1,0,3,2.29
2013-9-26,70.2,60.3,55.5,64.0,58.1,55.0,99,93,77,30.17,30.00,2,0,3,0.01
2013-9-27,71.5,57.8,49.3,62.0,54.7,49.0,99,90,61,30.30,30.17,2,0,5,0.00
2013-9-28,69.5,57.2,50.9,58.0,53.7,50.0,96,88,65,30.37,30.25,3,0,4,0.00
2013-9-29,67.9,57.1,49.7,57.0,53.3,48.0,95,87,65,30.30,30.15,2,0,5,0.00
2013-9-30,65.5,57.3,51.0,60.0,54.9,50.0,99,92,79,30.23,30.14,2,0,3,0.00
2013-10-1,72.0,59.6,51.0,63.0,56.1,51.0,99,89,62,30.32,30.20,2,0,3,0.00
2013-10-2,72.7,61.0,54.4,64.0,57.8,54.0,98,90,61,30.33,30.21,3,0,4,0.00
2013-10-3,75.0,62.7,57.4,65.0,59.5,56.0,97,90,65,30.28,30.18,2,0,3,0.00
2013-10-4,72.7,62.4,55.0,66.0,59.6,55.0,99,91,73,30.31,30.22,3,1,3,0.00
2013-10-5,77.7,64.0,56.0,69.0,60.8,56.0,99,90,70,30.29,30.16,2,0,5,0.00
2013-10-6,71.3,63.7,58.7,64.0,60.3,58.0,97,89,69,30.18,30.00,2,0,6,0.10
2013-10-7,69.3,59.1,49.0,63.0,57.2,47.0,98,93,78,30.13,29.91,3,0,7,1.33
2013-10-8,69.1,54.6,46.3,59.0,50.5,46.0,98,87,64,30.32,30.13,4,1,5,0.00
2013-10-9,71.2,56.2,46.5,61.0,52.2,45.0,95,87,67,30.35,30.24,2,0,3,0.00
2013-10-10,68.7,56.5,49.5,57.0,52.8,49.0,99,88,65,30.27,30.16,3,0,3,0.00
2013-10-11,69.6,56.4,46.9,59.0,51.9,46.0,99,86,59,30.23,30.12,2,0,3,0.00
2013-10-12,71.4,58.3,49.1,61.0,54.5,49.0,99,88,66,30.26,30.16,2,0,4,0.00
2013-10-13,67.1,60.3,55.9,61.0,57.2,54.0,96,89,77,30.33,30.25,2,0,2,0.00
2013-10-14,65.6,59.7,55.6,61.0,56.9,54.0,97,91,81,30.36,30.25,2,0,5,0.00
2013-10-15,68.5,58.7,51.6,60.0,54.9,51.0,98,88,67,30.30,30.15,2,0,6,0.00
2013-10-16,62.4,56.5,51.5,58.0,54.0,50.0,96,91,83,30.20,30.09,2,0,2,0.00
2013-10-17,62.3,58.4,54.5,61.0,57.7,54.0,99,97,94,30.11,29.98,2,0,6,0.27
2013-10-18,65.2,54.9,48.3,58.0,51.7,47.0,99,89,59,30.16,30.05,2,0,4,0.00
2013-10-19,56.6,51.9,47.1,51.0,47.0,43.0,94,83,66,30.11,30.03,2,0,7,0.00
2013-10-20,61.6,48.2,40.1,49.0,42.3,39.0,97,82,56,30.25,30.11,3,1,4,0.00
2013-10-21,62.6,50.1,41.1,51.0,45.3,40.0,98,85,51,30.32,30.17,4,0,5,0.00
2013-10-22,61.9,53.7,48.7,53.0,48.3,43.0,96,83,62,30.20,29.97,3,0,9,0.00
2013-10-23,49.3,43.2,32.5,44.0,35.8,28.0,86,75,63,30.23,29.92,6,1,11,0.00
2013-10-24,50.7,39.3,29.6,38.0,32.3,27.0,92,77,57,30.41,30.24,5,1,8,0.00
2013-10-25,46.4,36.5,27.3,32.0,25.4,20.0,86,66,39,30.59,30.41,3,1,7,0.00
2013-10-26,52.4,39.3,27.5,38.0,28.4,22.0,89,68,32,30.58,30.33,2,0,4,0.00
2013-10-27,60.4,50.7,43.7,50.0,45.1,36.0,91,81,66,30.33,30.24,4,0,7,0.00
2013-10-28,61.6,52.6,48.1,55.0,49.6,47.0,98,90,69,30.42,30.29,2,0,5,0.14
2013-10-29,62.4,53.7,48.2,52.0,48.7,47.0,98,84,61,30.51,30.41,3,0,4,0.00
2013-10-30,66.0,57.6,52.0,56.0,52.6,48.0,92,84,68,30.46,30.31,2,0,4,0.00
2013-10-31,62.0,59.2,55.7,58.0,54.3,51.0,92,84,74,30.33,29.95,7,1,13,0.01
2013-11-1,66.1,59.0,52.0,58.0,49.5,34.0,97,74,37,29.93,29.79,7,2,19,0.29
2013-11-2,56.7,47.6,40.7,44.0,39.6,34.0,87,74,53,30.21,29.89,6,1,9,0.01
2013-11-3,54.4,44.1,37.3,37.0,34.0,27.0,88,70,38,30.53,30.20,3,1,6,0.00
2013-11-4,54.3,43.6,36.9,36.0,33.0,31.0,81,68,47,30.67,30.53,5,1,8,0.00
2013-11-5,61.6,46.9,36.2,39.0,33.0,25.0,83,61,36,30.67,30.52,4,1,6,0.00
2013-11-6,61.3,53.3,46.9,53.0,49.6,36.0,98,87,64,30.56,30.27,3,0,8,0.04
2013-11-7,59.9,49.2,36.9,54.0,42.5,26.0,98,79,46,30.31,30.15,6,1,10,0.11
2013-11-8,48.3,39.5,31.4,27.0,20.3,9.0,75,49,21,30.51,30.31,6,2,10,0.00
2013-11-9,52.6,42.2,33.1,34.0,26.6,19.0,70,55,40,30.55,30.43,2,1,4,0.00
2013-11-10,58.8,48.3,40.5,35.0,28.3,21.0,62,47,31,30.50,30.39,4,1,8,0.00
2013-11-11,57.9,46.3,35.9,34.0,27.2,23.0,67,50,27,30.52,30.35,4,1,5,0.00
2013-11-12,47.0,37.6,20.5,36.0,25.8,12.0,80,63,49,30.64,30.30,9,2,16,0.00
2013-11-13,40.5,29.3,18.6,14.0,9.8,4.0,72,48,23,30.85,30.64,4,2,7,0.00
2013-11-14,50.2,37.2,26.6,23.0,14.7,12.0,57,42,24,30.78,30.56,4,1,5,0.00
2013-11-15,48.4,42.4,34.5,48.0,33.2,11.0,98,74,35,30.59,30.41,3,0,5,0.39
2013-11-16,59.7,52.2,47.2,54.0,50.5,47.0,99,93,78,30.45,30.33,3,0,5,0.02
2013-11-17,60.3,56.5,51.9,59.0,54.9,51.0,98,94,86,30.35,30.05,4,1,8,0.35
2013-11-18,60.8,52.3,40.3,60.0,42.2,29.0,96,71,39,30.19,29.99,7,2,11,0.06
2013-11-19,50.6,41.0,33.1,30.0,24.4,14.0,74,54,23,30.41,30.19,6,1,11,0.00
2013-11-20,47.9,38.9,30.4,29.0,25.4,21.0,79,60,35,30.63,30.40,5,1,12,0.00
2013-11-21,52.4,47.3,37.5,51.0,43.9,28.0,98,88,67,30.66,30.55,3,0,6,0.08
2013-11-22,62.8,55.7,51.3,57.0,54.1,51.0,98,94,81,30.56,30.25,2,0,6,0.11
2013-11-23,53.9,45.1,28.7,53.0,38.1,13.0,98,78,39,30.35,30.20,6,1,10,0.00
2013-11-24,34.3,26.5,17.7,22.0,9.2,-1.0,78,51,22,30.66,30.34,8,1,11,0.00
2013-11-25,42.6,32.4,22.1,35.0,18.3,7.0,93,59,23,30.69,30.42,9,1,9,0.00
2013-11-26,44.2,42.2,37.4,44.0,41.8,36.0,99,98,94,30.41,29.78,2,0,6,2.38
2013-11-27,42.8,27.6,18.5,43.0,24.5,14.0,99,88,79,30.37,29.76,12,3,14,0.11
2013-11-28,38.1,27.0,15.5,28.0,19.7,13.0,91,75,55,30.69,30.37,4,1,4,0.00
2013-11-29,45.7,35.5,26.5,31.0,24.1,19.0,76,64,53,30.75,30.63,4,1,6,0.00
2013-11-30,46.5,36.7,28.5,30.0,24.6,21.0,79,62,41,30.72,30.50,4,1,5,0.00
2013-12-1,49.3,41.0,35.5,38.0,31.2,23.0,88,69,48,30.50,30.17,4,1,5,0.00
2013-12-2,48.1,42.2,36.3,41.0,36.7,31.0,89,81,73,30.16,29.96,3,0,3,0.00
2013-12-3,52.9,47.6,42.9,49.0,45.9,41.0,98,93,87,30.05,29.97,4,0,5,0.06
2013-12-4,62.0,54.4,48.5,54.0,51.1,47.0,98,89,71,30.17,30.05,6,1,10,0.02
2013-12-5,65.4,59.5,54.4,61.0,57.5,53.0,98,93,81,30.18,30.07,9,1,9,0.72
2013-12-6,65.6,62.1,54.2,61.0,59.5,53.0,97,91,81,30.11,30.00,6,2,14,0.77
2013-12-7,54.0,47.9,43.9,53.0,47.0,43.0,99,96,90,30.40,30.07,8,1,12,0.01
2013-12-8,52.8,43.1,38.7,53.0,42.6,38.0,99,98,94,30.41,30.28,6,1,12,0.79
2013-12-9,54.9,51.5,46.4,54.0,50.9,46.0,99,97,95,30.28,30.10,3,1,11,0.85
2013-12-10,52.6,40.4,27.0,52.0,34.5,14.0,99,80,51,30.44,29.99,7,2,14,0.33
2013-12-11,42.0,30.7,21.2,26.0,18.2,13.0,87,63,34,30.63,30.44,4,1,6,0.00
2013-12-12,37.3,29.7,23.2,21.0,13.5,6.0,79,54,29,30.60,30.52,4,1,5,0.00
2013-12-13,43.9,33.0,22.7,23.0,16.0,9.0,63,51,37,30.59,30.41,3,1,4,0.00
2013-12-14,48.0,42.4,36.8,48.0,38.2,19.0,99,86,45,30.41,29.94,10,1,12,0.62
2013-12-15,46.9,34.1,24.0,44.0,30.8,23.0,97,87,78,30.36,29.92,6,1,8,0.00
2013-12-16,44.2,32.9,22.3,32.0,26.2,21.0,98,79,48,30.53,30.36,4,1,8,0.01
2013-12-17,50.6,41.0,33.0,34.0,29.7,23.0,77,65,46,30.46,30.22,8,2,18,0.00
2013-12-18,42.9,34.6,26.3,23.0,10.7,1.0,68,40,21,30.58,30.32,5,2,10,0.00
2013-12-19,56.8,43.1,32.7,30.0,19.6,8.0,54,40,28,30.62,30.43,5,1,7,0.00
2013-12-20,57.5,48.4,40.7,50.0,33.4,20.0,88,58,41,30.44,30.31,5,1,7,0.00
2013-12-21,62.3,58.2,53.5,59.0,55.7,50.0,96,91,86,30.32,30.05,12,2,21,0.22
2013-12-22,62.9,55.6,51.3,60.0,54.2,51.0,99,95,80,30.18,30.02,9,2,20,0.05
2013-12-23,51.3,45.2,33.5,51.0,44.2,32.0,99,96,86,30.36,30.15,4,1,5,0.04
2013-12-24,33.2,26.8,19.4,32.0,22.5,16.0,97,84,68,30.65,30.36,5,1,11,0.00
2013-12-25,37.0,26.6,18.1,25.0,19.7,15.0,91,76,57,30.76,30.60,4,1,6,0.00
2013-12-26,41.1,31.4,25.0,28.0,21.3,18.0,84,68,42,30.65,30.52,4,1,5,0.00
2013-12-27,43.5,34.6,27.3,30.0,24.4,20.0,82,67,50,30.72,30.60,4,1,4,0.00
2013-12-28,42.4,36.2,30.2,38.0,30.4,20.0,97,80,61,30.66,30.25,4,1,4,0.40
2013-12-29,48.8,42.8,35.4,46.0,40.4,32.0,99,91,78,30.24,30.03,5,1,11,0.28
2013-12-30,43.4,39.3,36.1,37.0,34.9,28.0,91,84,71,30.34,30.19,3,1,8,0.00
2013-12-31,38.3,32.7,27.5,31.0,21.8,16.0,88,65,41,30.60,30.32,4,1,6,0.00
2014-1-1,42.9,34.2,28.4,27.0,22.4,20.0,77,63,41,30.61,30.37,3,1,4,0.00
2014-1-2,44.8,34.5,15.7,43.0,31.1,12.0,98,87,66,30.36,29.90,8,2,15,0.31